sensor_id;sensor_type;location;lat;lon;timestamp;P1;durP1;ratioP1;P2;durP2;ratioP2
29384;SDS011;16367;48.736;9.218;2023-08-30T00:01:39;17.10;;;10.75;;
29384;SDS011;16367;48.736;9.218;2023-08-30T00:03:42;19.20;;;11.77;;
29384;SDS011;16367;48.736;9.218;2023-08-30T00:05:45;17.70;;;10.75;;
29384;SDS011;16367;48.736;9.218;2023-08-30T00:07:47;17.13;;;10.82;;
29384;SDS011;16367;48.736;9.218;2023-08-30T00:09:51;19.35;;;11.80;;
29384;SDS011;16367;48.736;9.218;2023-08-30T00:11:54;18.90;;;10.85;;
29384;SDS011;16367;48.736;9.218;2023-08-30T00:14:02;19.60;;;12.25;;
29384;SDS011;16367;48.736;9.218;2023-08-30T00:16:04;18.15;;;12.00;;
29384;SDS011;16367;48.736;9.218;2023-08-30T00:18:08;17.27;;;10.73;;
29384;SDS011;16367;48.736;9.218;2023-08-30T00:20:11;17.40;;;10.75;;
29384;SDS011;16367;48.736;9.218;2023-08-30T00:22:14;19.10;;;11.85;;
29384;SDS011;16367;48.736;9.218;2023-08-30T00:24:17;17.80;;;11.50;;
29384;SDS011;16367;48.736;9.218;2023-08-30T00:26:21;18.33;;;12.15;;
29384;SDS011;16367;48.736;9.218;2023-08-30T00:28:23;19.60;;;11.80;;
29384;SDS011;16367;48.736;9.218;2023-08-30T00:30:26;17.10;;;10.50;;
29384;SDS011;16367;48.736;9.218;2023-08-30T00:32:29;19.35;;;11.75;;
29384;SDS011;16367;48.736;9.218;2023-08-30T00:34:32;19.98;;;11.60;;
29384;SDS011;16367;48.736;9.218;2023-08-30T00:36:36;18.60;;;11.52;;
29384;SDS011;16367;48.736;9.218;2023-08-30T00:38:39;19.58;;;11.52;;
29384;SDS011;16367;48.736;9.218;2023-08-30T00:40:41;20.55;;;12.15;;
29384;SDS011;16367;48.736;9.218;2023-08-30T00:42:45;20.10;;;12.00;;
29384;SDS011;16367;48.736;9.218;2023-08-30T00:44:48;18.77;;;12.07;;
29384;SDS011;16367;48.736;9.218;2023-08-30T00:46:51;20.58;;;12.38;;
29384;SDS011;16367;48.736;9.218;2023-08-30T00:48:54;20.63;;;12.40;;
29384;SDS011;16367;48.736;9.218;2023-08-30T00:50:57;19.20;;;11.68;;
29384;SDS011;16367;48.736;9.218;2023-08-30T00:53:00;21.58;;;12.57;;
29384;SDS011;16367;48.736;9.218;2023-08-30T00:55:06;20.67;;;12.05;;
29384;SDS011;16367;48.736;9.218;2023-08-30T00:57:10;21.25;;;12.57;;
29384;SDS011;16367;48.736;9.218;2023-08-30T00:59:14;21.67;;;11.90;;
29384;SDS011;16367;48.736;9.218;2023-08-30T01:01:17;21.83;;;12.10;;
29384;SDS011;16367;48.736;9.218;2023-08-30T01:03:20;20.20;;;12.27;;
29384;SDS011;16367;48.736;9.218;2023-08-30T01:05:25;22.85;;;12.45;;
29384;SDS011;16367;48.736;9.218;2023-08-30T01:07:28;19.77;;;12.27;;
29384;SDS011;16367;48.736;9.218;2023-08-30T01:09:31;18.35;;;11.50;;
29384;SDS011;16367;48.736;9.218;2023-08-30T01:11:36;20.27;;;11.40;;
29384;SDS011;16367;48.736;9.218;2023-08-30T01:13:43;22.20;;;11.80;;
29384;SDS011;16367;48.736;9.218;2023-08-30T01:15:51;19.92;;;11.40;;
29384;SDS011;16367;48.736;9.218;2023-08-30T01:20:00;17.88;;;10.35;;
29384;SDS011;16367;48.736;9.218;2023-08-30T01:22:11;19.60;;;11.85;;
29384;SDS011;16367;48.736;9.218;2023-08-30T01:24:20;20.15;;;11.48;;
29384;SDS011;16367;48.736;9.218;2023-08-30T01:26:32;22.38;;;12.82;;
29384;SDS011;16367;48.736;9.218;2023-08-30T01:28:45;18.33;;;11.48;;
29384;SDS011;16367;48.736;9.218;2023-08-30T01:30:49;22.27;;;12.20;;
29384;SDS011;16367;48.736;9.218;2023-08-30T01:34:58;21.02;;;11.70;;
29384;SDS011;16367;48.736;9.218;2023-08-30T01:37:00;23.67;;;11.70;;
29384;SDS011;16367;48.736;9.218;2023-08-30T01:39:04;21.08;;;11.70;;
29384;SDS011;16367;48.736;9.218;2023-08-30T01:41:09;20.30;;;11.60;;
29384;SDS011;16367;48.736;9.218;2023-08-30T01:43:12;18.75;;;11.45;;
29384;SDS011;16367;48.736;9.218;2023-08-30T01:45:18;18.52;;;11.98;;
29384;SDS011;16367;48.736;9.218;2023-08-30T01:47:23;18.30;;;11.18;;
29384;SDS011;16367;48.736;9.218;2023-08-30T01:49:25;18.88;;;12.02;;
29384;SDS011;16367;48.736;9.218;2023-08-30T01:51:29;18.58;;;11.02;;
29384;SDS011;16367;48.736;9.218;2023-08-30T01:53:33;20.08;;;11.75;;
29384;SDS011;16367;48.736;9.218;2023-08-30T01:55:37;20.15;;;13.05;;
29384;SDS011;16367;48.736;9.218;2023-08-30T01:57:40;19.45;;;11.55;;
29384;SDS011;16367;48.736;9.218;2023-08-30T01:59:43;19.63;;;11.95;;
29384;SDS011;16367;48.736;9.218;2023-08-30T02:01:46;18.75;;;11.55;;
29384;SDS011;16367;48.736;9.218;2023-08-30T02:03:48;21.05;;;12.00;;
29384;SDS011;16367;48.736;9.218;2023-08-30T02:05:54;20.52;;;11.77;;
29384;SDS011;16367;48.736;9.218;2023-08-30T02:08:05;18.40;;;11.57;;
29384;SDS011;16367;48.736;9.218;2023-08-30T02:10:15;19.27;;;11.75;;
29384;SDS011;16367;48.736;9.218;2023-08-30T02:12:23;18.98;;;11.48;;
29384;SDS011;16367;48.736;9.218;2023-08-30T02:14:28;20.23;;;11.65;;
29384;SDS011;16367;48.736;9.218;2023-08-30T02:16:33;21.50;;;11.43;;
29384;SDS011;16367;48.736;9.218;2023-08-30T02:18:38;23.92;;;12.80;;
29384;SDS011;16367;48.736;9.218;2023-08-30T02:20:41;19.98;;;11.32;;
29384;SDS011;16367;48.736;9.218;2023-08-30T02:22:43;18.38;;;12.07;;
29384;SDS011;16367;48.736;9.218;2023-08-30T02:24:46;20.95;;;11.30;;
29384;SDS011;16367;48.736;9.218;2023-08-30T02:26:48;21.20;;;12.13;;
29384;SDS011;16367;48.736;9.218;2023-08-30T02:28:51;19.45;;;12.27;;
29384;SDS011;16367;48.736;9.218;2023-08-30T02:30:53;21.13;;;12.68;;
29384;SDS011;16367;48.736;9.218;2023-08-30T02:32:56;20.30;;;12.65;;
29384;SDS011;16367;48.736;9.218;2023-08-30T02:35:01;20.23;;;12.30;;
29384;SDS011;16367;48.736;9.218;2023-08-30T02:37:04;21.90;;;12.82;;
29384;SDS011;16367;48.736;9.218;2023-08-30T02:39:07;19.73;;;12.02;;
29384;SDS011;16367;48.736;9.218;2023-08-30T02:41:10;20.17;;;11.70;;
29384;SDS011;16367;48.736;9.218;2023-08-30T02:43:13;21.67;;;12.15;;
29384;SDS011;16367;48.736;9.218;2023-08-30T02:45:16;19.65;;;12.02;;
29384;SDS011;16367;48.736;9.218;2023-08-30T02:47:19;19.00;;;11.15;;
29384;SDS011;16367;48.736;9.218;2023-08-30T02:49:21;20.05;;;11.45;;
29384;SDS011;16367;48.736;9.218;2023-08-30T02:51:25;20.30;;;12.02;;
29384;SDS011;16367;48.736;9.218;2023-08-30T02:53:28;19.80;;;11.43;;
29384;SDS011;16367;48.736;9.218;2023-08-30T02:55:31;19.63;;;12.88;;
29384;SDS011;16367;48.736;9.218;2023-08-30T02:57:34;19.42;;;12.77;;
29384;SDS011;16367;48.736;9.218;2023-08-30T02:59:36;19.83;;;11.30;;
29384;SDS011;16367;48.736;9.218;2023-08-30T03:01:39;19.08;;;11.18;;
29384;SDS011;16367;48.736;9.218;2023-08-30T03:03:42;20.80;;;11.32;;
29384;SDS011;16367;48.736;9.218;2023-08-30T03:05:44;20.40;;;11.82;;
29384;SDS011;16367;48.736;9.218;2023-08-30T03:07:52;18.73;;;11.73;;
29384;SDS011;16367;48.736;9.218;2023-08-30T03:09:55;18.40;;;11.15;;
29384;SDS011;16367;48.736;9.218;2023-08-30T03:11:57;17.90;;;10.98;;
29384;SDS011;16367;48.736;9.218;2023-08-30T03:13:59;18.45;;;10.90;;
29384;SDS011;16367;48.736;9.218;2023-08-30T03:16:02;17.50;;;10.60;;
29384;SDS011;16367;48.736;9.218;2023-08-30T03:18:12;17.20;;;10.43;;
29384;SDS011;16367;48.736;9.218;2023-08-30T03:20:15;17.33;;;10.85;;
29384;SDS011;16367;48.736;9.218;2023-08-30T03:22:18;17.92;;;10.82;;
29384;SDS011;16367;48.736;9.218;2023-08-30T03:24:22;16.83;;;10.68;;
29384;SDS011;16367;48.736;9.218;2023-08-30T03:26:24;15.85;;;9.88;;
29384;SDS011;16367;48.736;9.218;2023-08-30T03:28:26;18.58;;;10.98;;
29384;SDS011;16367;48.736;9.218;2023-08-30T03:30:29;17.85;;;10.85;;
29384;SDS011;16367;48.736;9.218;2023-08-30T03:32:32;17.92;;;11.07;;
29384;SDS011;16367;48.736;9.218;2023-08-30T03:34:35;17.10;;;10.35;;
29384;SDS011;16367;48.736;9.218;2023-08-30T03:36:38;17.33;;;10.50;;
29384;SDS011;16367;48.736;9.218;2023-08-30T03:38:40;18.38;;;10.52;;
29384;SDS011;16367;48.736;9.218;2023-08-30T03:40:44;17.15;;;10.55;;
29384;SDS011;16367;48.736;9.218;2023-08-30T03:42:47;19.27;;;11.02;;
29384;SDS011;16367;48.736;9.218;2023-08-30T03:44:50;17.67;;;11.20;;
29384;SDS011;16367;48.736;9.218;2023-08-30T03:46:53;19.80;;;11.45;;
29384;SDS011;16367;48.736;9.218;2023-08-30T03:48:58;18.60;;;11.02;;
29384;SDS011;16367;48.736;9.218;2023-08-30T03:51:00;19.75;;;11.13;;
29384;SDS011;16367;48.736;9.218;2023-08-30T03:53:02;18.50;;;10.88;;
29384;SDS011;16367;48.736;9.218;2023-08-30T03:55:05;19.85;;;12.00;;
29384;SDS011;16367;48.736;9.218;2023-08-30T03:57:10;18.40;;;12.43;;
29384;SDS011;16367;48.736;9.218;2023-08-30T03:59:13;19.00;;;10.82;;
29384;SDS011;16367;48.736;9.218;2023-08-30T04:01:15;18.35;;;11.05;;
29384;SDS011;16367;48.736;9.218;2023-08-30T04:03:18;19.20;;;11.68;;
29384;SDS011;16367;48.736;9.218;2023-08-30T04:05:21;21.35;;;12.30;;
29384;SDS011;16367;48.736;9.218;2023-08-30T04:07:24;20.27;;;11.48;;
29384;SDS011;16367;48.736;9.218;2023-08-30T04:09:25;17.02;;;10.57;;
29384;SDS011;16367;48.736;9.218;2023-08-30T04:11:28;18.58;;;10.57;;
29384;SDS011;16367;48.736;9.218;2023-08-30T04:13:32;18.85;;;11.70;;
29384;SDS011;16367;48.736;9.218;2023-08-30T04:15:36;19.05;;;11.57;;
29384;SDS011;16367;48.736;9.218;2023-08-30T04:17:40;17.25;;;10.82;;
29384;SDS011;16367;48.736;9.218;2023-08-30T04:19:42;18.45;;;10.90;;
29384;SDS011;16367;48.736;9.218;2023-08-30T04:21:45;19.95;;;11.40;;
29384;SDS011;16367;48.736;9.218;2023-08-30T04:23:47;18.20;;;10.95;;
29384;SDS011;16367;48.736;9.218;2023-08-30T04:25:50;19.92;;;12.02;;
29384;SDS011;16367;48.736;9.218;2023-08-30T04:27:54;18.02;;;11.00;;
29384;SDS011;16367;48.736;9.218;2023-08-30T04:29:57;18.38;;;11.13;;
29384;SDS011;16367;48.736;9.218;2023-08-30T04:32:00;18.83;;;11.10;;
29384;SDS011;16367;48.736;9.218;2023-08-30T04:34:03;17.10;;;10.57;;
29384;SDS011;16367;48.736;9.218;2023-08-30T04:36:06;20.38;;;11.45;;
29384;SDS011;16367;48.736;9.218;2023-08-30T04:38:09;19.70;;;11.13;;
29384;SDS011;16367;48.736;9.218;2023-08-30T04:40:12;20.92;;;12.57;;
29384;SDS011;16367;48.736;9.218;2023-08-30T04:42:15;19.42;;;11.20;;
29384;SDS011;16367;48.736;9.218;2023-08-30T04:44:18;19.08;;;10.55;;
29384;SDS011;16367;48.736;9.218;2023-08-30T04:46:26;18.83;;;10.88;;
29384;SDS011;16367;48.736;9.218;2023-08-30T04:48:29;19.63;;;10.48;;
29384;SDS011;16367;48.736;9.218;2023-08-30T04:50:32;19.95;;;11.25;;
29384;SDS011;16367;48.736;9.218;2023-08-30T04:52:34;18.27;;;10.57;;
29384;SDS011;16367;48.736;9.218;2023-08-30T04:54:36;19.83;;;12.07;;
29384;SDS011;16367;48.736;9.218;2023-08-30T04:56:39;18.75;;;11.32;;
29384;SDS011;16367;48.736;9.218;2023-08-30T04:58:42;20.13;;;11.30;;
29384;SDS011;16367;48.736;9.218;2023-08-30T05:00:44;19.52;;;11.05;;
29384;SDS011;16367;48.736;9.218;2023-08-30T05:02:48;18.45;;;10.70;;
29384;SDS011;16367;48.736;9.218;2023-08-30T05:04:51;18.83;;;10.30;;
29384;SDS011;16367;48.736;9.218;2023-08-30T05:06:53;18.83;;;10.68;;
29384;SDS011;16367;48.736;9.218;2023-08-30T05:08:56;21.90;;;11.35;;
29384;SDS011;16367;48.736;9.218;2023-08-30T05:10:59;19.33;;;11.13;;
29384;SDS011;16367;48.736;9.218;2023-08-30T05:13:07;18.33;;;11.18;;
29384;SDS011;16367;48.736;9.218;2023-08-30T05:15:09;16.77;;;10.18;;
29384;SDS011;16367;48.736;9.218;2023-08-30T05:17:12;19.60;;;10.48;;
29384;SDS011;16367;48.736;9.218;2023-08-30T05:19:16;19.80;;;11.05;;
29384;SDS011;16367;48.736;9.218;2023-08-30T05:21:19;17.48;;;10.18;;
29384;SDS011;16367;48.736;9.218;2023-08-30T05:23:21;17.75;;;11.75;;
29384;SDS011;16367;48.736;9.218;2023-08-30T05:25:24;18.42;;;10.80;;
29384;SDS011;16367;48.736;9.218;2023-08-30T05:27:28;19.85;;;10.82;;
29384;SDS011;16367;48.736;9.218;2023-08-30T05:29:30;18.65;;;10.68;;
29384;SDS011;16367;48.736;9.218;2023-08-30T05:31:33;20.27;;;11.07;;
29384;SDS011;16367;48.736;9.218;2023-08-30T05:33:35;17.65;;;9.95;;
29384;SDS011;16367;48.736;9.218;2023-08-30T05:35:39;16.77;;;9.82;;
29384;SDS011;16367;48.736;9.218;2023-08-30T05:37:42;18.08;;;10.13;;
29384;SDS011;16367;48.736;9.218;2023-08-30T05:39:44;17.27;;;10.43;;
29384;SDS011;16367;48.736;9.218;2023-08-30T05:41:47;16.27;;;10.57;;
29384;SDS011;16367;48.736;9.218;2023-08-30T05:43:49;15.57;;;9.73;;
29384;SDS011;16367;48.736;9.218;2023-08-30T05:45:51;14.73;;;9.10;;
29384;SDS011;16367;48.736;9.218;2023-08-30T05:47:54;16.20;;;9.63;;
29384;SDS011;16367;48.736;9.218;2023-08-30T05:49:57;15.15;;;8.75;;
29384;SDS011;16367;48.736;9.218;2023-08-30T05:52:01;15.10;;;9.18;;
29384;SDS011;16367;48.736;9.218;2023-08-30T05:54:04;14.93;;;8.88;;
29384;SDS011;16367;48.736;9.218;2023-08-30T05:56:07;16.80;;;9.57;;
29384;SDS011;16367;48.736;9.218;2023-08-30T05:58:10;15.85;;;9.85;;
29384;SDS011;16367;48.736;9.218;2023-08-30T06:00:12;15.73;;;9.05;;
29384;SDS011;16367;48.736;9.218;2023-08-30T06:02:15;15.85;;;9.57;;
29384;SDS011;16367;48.736;9.218;2023-08-30T06:04:17;16.15;;;9.20;;
29384;SDS011;16367;48.736;9.218;2023-08-30T06:06:20;13.65;;;9.15;;
29384;SDS011;16367;48.736;9.218;2023-08-30T06:08:24;15.45;;;8.88;;
29384;SDS011;16367;48.736;9.218;2023-08-30T06:10:27;15.35;;;8.75;;
29384;SDS011;16367;48.736;9.218;2023-08-30T06:12:30;15.05;;;9.02;;
29384;SDS011;16367;48.736;9.218;2023-08-30T06:14:33;16.05;;;8.75;;
29384;SDS011;16367;48.736;9.218;2023-08-30T06:16:35;14.05;;;8.27;;
29384;SDS011;16367;48.736;9.218;2023-08-30T06:18:38;12.52;;;8.43;;
29384;SDS011;16367;48.736;9.218;2023-08-30T06:20:42;13.48;;;8.50;;
29384;SDS011;16367;48.736;9.218;2023-08-30T06:22:45;12.38;;;8.18;;
29384;SDS011;16367;48.736;9.218;2023-08-30T06:24:49;13.68;;;9.00;;
29384;SDS011;16367;48.736;9.218;2023-08-30T06:26:52;12.25;;;7.75;;
29384;SDS011;16367;48.736;9.218;2023-08-30T06:28:54;12.85;;;7.88;;
29384;SDS011;16367;48.736;9.218;2023-08-30T06:31:05;13.98;;;7.60;;
29384;SDS011;16367;48.736;9.218;2023-08-30T06:33:08;13.32;;;8.25;;
29384;SDS011;16367;48.736;9.218;2023-08-30T06:35:11;14.13;;;7.82;;
29384;SDS011;16367;48.736;9.218;2023-08-30T06:37:13;12.70;;;7.68;;
29384;SDS011;16367;48.736;9.218;2023-08-30T06:39:16;11.90;;;7.95;;
29384;SDS011;16367;48.736;9.218;2023-08-30T06:41:20;13.15;;;9.20;;
29384;SDS011;16367;48.736;9.218;2023-08-30T06:43:23;11.65;;;7.20;;
29384;SDS011;16367;48.736;9.218;2023-08-30T06:45:25;13.02;;;7.78;;
29384;SDS011;16367;48.736;9.218;2023-08-30T06:47:28;15.00;;;8.80;;
29384;SDS011;16367;48.736;9.218;2023-08-30T06:49:31;13.35;;;8.57;;
29384;SDS011;16367;48.736;9.218;2023-08-30T06:51:34;12.35;;;7.32;;
29384;SDS011;16367;48.736;9.218;2023-08-30T06:53:36;12.68;;;7.43;;
29384;SDS011;16367;48.736;9.218;2023-08-30T06:55:39;14.13;;;7.90;;
29384;SDS011;16367;48.736;9.218;2023-08-30T06:57:47;13.00;;;8.23;;
29384;SDS011;16367;48.736;9.218;2023-08-30T06:59:51;13.35;;;7.95;;
29384;SDS011;16367;48.736;9.218;2023-08-30T07:01:54;11.50;;;7.60;;
29384;SDS011;16367;48.736;9.218;2023-08-30T07:03:57;13.70;;;7.57;;
29384;SDS011;16367;48.736;9.218;2023-08-30T07:06:00;13.02;;;7.95;;
29384;SDS011;16367;48.736;9.218;2023-08-30T07:08:03;13.63;;;7.80;;
29384;SDS011;16367;48.736;9.218;2023-08-30T07:10:06;13.02;;;7.93;;
29384;SDS011;16367;48.736;9.218;2023-08-30T07:12:08;13.07;;;7.35;;
29384;SDS011;16367;48.736;9.218;2023-08-30T07:14:12;12.32;;;8.02;;
29384;SDS011;16367;48.736;9.218;2023-08-30T07:16:15;12.20;;;7.45;;
29384;SDS011;16367;48.736;9.218;2023-08-30T07:18:18;12.88;;;7.75;;
29384;SDS011;16367;48.736;9.218;2023-08-30T07:20:21;13.70;;;8.38;;
29384;SDS011;16367;48.736;9.218;2023-08-30T07:22:24;12.63;;;7.88;;
29384;SDS011;16367;48.736;9.218;2023-08-30T07:24:26;14.82;;;7.95;;
29384;SDS011;16367;48.736;9.218;2023-08-30T07:26:29;13.35;;;7.50;;
29384;SDS011;16367;48.736;9.218;2023-08-30T07:28:32;13.18;;;8.65;;
29384;SDS011;16367;48.736;9.218;2023-08-30T07:30:35;11.75;;;7.60;;
29384;SDS011;16367;48.736;9.218;2023-08-30T07:32:39;13.40;;;7.72;;
29384;SDS011;16367;48.736;9.218;2023-08-30T07:34:42;11.88;;;7.00;;
29384;SDS011;16367;48.736;9.218;2023-08-30T07:36:45;11.77;;;7.47;;
29384;SDS011;16367;48.736;9.218;2023-08-30T07:38:48;12.52;;;7.63;;
29384;SDS011;16367;48.736;9.218;2023-08-30T07:40:51;10.73;;;7.10;;
29384;SDS011;16367;48.736;9.218;2023-08-30T07:42:54;11.52;;;7.40;;
29384;SDS011;16367;48.736;9.218;2023-08-30T07:45:00;24.13;;;8.40;;
29384;SDS011;16367;48.736;9.218;2023-08-30T07:47:03;12.68;;;7.60;;
29384;SDS011;16367;48.736;9.218;2023-08-30T07:49:06;13.38;;;7.38;;
29384;SDS011;16367;48.736;9.218;2023-08-30T07:51:09;10.70;;;7.15;;
29384;SDS011;16367;48.736;9.218;2023-08-30T07:53:12;10.10;;;6.03;;
29384;SDS011;16367;48.736;9.218;2023-08-30T07:55:14;11.25;;;7.05;;
29384;SDS011;16367;48.736;9.218;2023-08-30T07:57:17;11.85;;;6.40;;
29384;SDS011;16367;48.736;9.218;2023-08-30T07:59:20;9.57;;;6.32;;
29384;SDS011;16367;48.736;9.218;2023-08-30T08:01:22;15.05;;;6.80;;
29384;SDS011;16367;48.736;9.218;2023-08-30T08:03:26;9.55;;;6.47;;
29384;SDS011;16367;48.736;9.218;2023-08-30T08:05:28;10.63;;;6.60;;
29384;SDS011;16367;48.736;9.218;2023-08-30T08:07:31;12.68;;;6.72;;
29384;SDS011;16367;48.736;9.218;2023-08-30T08:09:34;10.38;;;6.50;;
29384;SDS011;16367;48.736;9.218;2023-08-30T08:11:37;9.63;;;6.30;;
29384;SDS011;16367;48.736;9.218;2023-08-30T08:13:44;9.40;;;5.75;;
29384;SDS011;16367;48.736;9.218;2023-08-30T08:15:47;9.98;;;6.50;;
29384;SDS011;16367;48.736;9.218;2023-08-30T08:17:50;11.55;;;6.25;;
29384;SDS011;16367;48.736;9.218;2023-08-30T08:19:54;9.60;;;6.13;;
29384;SDS011;16367;48.736;9.218;2023-08-30T08:21:57;9.05;;;5.70;;
29384;SDS011;16367;48.736;9.218;2023-08-30T08:23:59;9.63;;;5.70;;
29384;SDS011;16367;48.736;9.218;2023-08-30T08:26:02;8.80;;;5.57;;
29384;SDS011;16367;48.736;9.218;2023-08-30T08:28:05;8.05;;;5.10;;
29384;SDS011;16367;48.736;9.218;2023-08-30T08:30:09;11.25;;;5.03;;
29384;SDS011;16367;48.736;9.218;2023-08-30T08:32:12;8.63;;;4.88;;
29384;SDS011;16367;48.736;9.218;2023-08-30T08:34:14;7.63;;;4.47;;
29384;SDS011;16367;48.736;9.218;2023-08-30T08:36:19;7.93;;;4.47;;
29384;SDS011;16367;48.736;9.218;2023-08-30T08:38:22;7.03;;;4.38;;
29384;SDS011;16367;48.736;9.218;2023-08-30T08:40:24;8.48;;;4.55;;
29384;SDS011;16367;48.736;9.218;2023-08-30T08:42:42;7.47;;;4.63;;
29384;SDS011;16367;48.736;9.218;2023-08-30T08:44:46;7.40;;;5.03;;
29384;SDS011;16367;48.736;9.218;2023-08-30T08:46:49;7.05;;;4.57;;
29384;SDS011;16367;48.736;9.218;2023-08-30T08:48:54;6.32;;;3.63;;
29384;SDS011;16367;48.736;9.218;2023-08-30T08:50:58;7.45;;;4.03;;
29384;SDS011;16367;48.736;9.218;2023-08-30T08:53:03;7.47;;;4.53;;
29384;SDS011;16367;48.736;9.218;2023-08-30T08:55:08;7.45;;;4.70;;
29384;SDS011;16367;48.736;9.218;2023-08-30T08:57:10;7.00;;;4.40;;
29384;SDS011;16367;48.736;9.218;2023-08-30T08:59:13;7.63;;;4.20;;
29384;SDS011;16367;48.736;9.218;2023-08-30T09:01:15;8.10;;;3.70;;
29384;SDS011;16367;48.736;9.218;2023-08-30T09:03:35;6.50;;;4.07;;
29384;SDS011;16367;48.736;9.218;2023-08-30T09:05:38;6.15;;;3.75;;
29384;SDS011;16367;48.736;9.218;2023-08-30T09:07:42;6.57;;;3.90;;
29384;SDS011;16367;48.736;9.218;2023-08-30T09:09:47;5.95;;;3.50;;
29384;SDS011;16367;48.736;9.218;2023-08-30T09:11:50;6.45;;;3.38;;
29384;SDS011;16367;48.736;9.218;2023-08-30T09:13:53;6.68;;;3.58;;
29384;SDS011;16367;48.736;9.218;2023-08-30T09:15:56;7.38;;;3.47;;
29384;SDS011;16367;48.736;9.218;2023-08-30T09:17:58;5.45;;;3.03;;
29384;SDS011;16367;48.736;9.218;2023-08-30T09:20:05;6.35;;;3.40;;
29384;SDS011;16367;48.736;9.218;2023-08-30T09:22:09;7.50;;;3.17;;
29384;SDS011;16367;48.736;9.218;2023-08-30T09:24:11;5.40;;;3.03;;
29384;SDS011;16367;48.736;9.218;2023-08-30T09:26:15;6.97;;;3.22;;
29384;SDS011;16367;48.736;9.218;2023-08-30T09:28:17;6.25;;;3.20;;
29384;SDS011;16367;48.736;9.218;2023-08-30T09:30:23;5.55;;;3.08;;
29384;SDS011;16367;48.736;9.218;2023-08-30T09:32:26;4.57;;;2.47;;
29384;SDS011;16367;48.736;9.218;2023-08-30T09:34:29;4.90;;;2.90;;
29384;SDS011;16367;48.736;9.218;2023-08-30T09:36:34;4.97;;;2.85;;
29384;SDS011;16367;48.736;9.218;2023-08-30T09:38:37;5.00;;;2.78;;
29384;SDS011;16367;48.736;9.218;2023-08-30T09:40:40;5.07;;;2.92;;
29384;SDS011;16367;48.736;9.218;2023-08-30T09:42:44;4.65;;;2.38;;
29384;SDS011;16367;48.736;9.218;2023-08-30T09:45:04;5.38;;;2.60;;
29384;SDS011;16367;48.736;9.218;2023-08-30T09:47:07;5.07;;;2.42;;
29384;SDS011;16367;48.736;9.218;2023-08-30T09:49:10;4.50;;;2.35;;
29384;SDS011;16367;48.736;9.218;2023-08-30T09:51:12;4.75;;;2.67;;
29384;SDS011;16367;48.736;9.218;2023-08-30T09:53:17;5.70;;;2.80;;
29384;SDS011;16367;48.736;9.218;2023-08-30T09:55:21;4.88;;;2.58;;
29384;SDS011;16367;48.736;9.218;2023-08-30T09:57:25;5.82;;;2.67;;
29384;SDS011;16367;48.736;9.218;2023-08-30T09:59:30;5.07;;;2.70;;
29384;SDS011;16367;48.736;9.218;2023-08-30T10:01:33;5.80;;;2.95;;
29384;SDS011;16367;48.736;9.218;2023-08-30T10:03:37;5.20;;;2.28;;
29384;SDS011;16367;48.736;9.218;2023-08-30T10:05:40;6.22;;;2.70;;
29384;SDS011;16367;48.736;9.218;2023-08-30T10:07:44;5.15;;;2.65;;
29384;SDS011;16367;48.736;9.218;2023-08-30T10:09:48;5.10;;;2.30;;
29384;SDS011;16367;48.736;9.218;2023-08-30T10:12:10;5.32;;;2.53;;
29384;SDS011;16367;48.736;9.218;2023-08-30T10:14:13;4.63;;;2.58;;
29384;SDS011;16367;48.736;9.218;2023-08-30T10:16:18;5.20;;;2.40;;
29384;SDS011;16367;48.736;9.218;2023-08-30T10:18:22;5.18;;;2.08;;
29384;SDS011;16367;48.736;9.218;2023-08-30T10:20:30;4.45;;;2.20;;
29384;SDS011;16367;48.736;9.218;2023-08-30T10:22:33;4.30;;;2.20;;
29384;SDS011;16367;48.736;9.218;2023-08-30T10:24:39;4.85;;;2.00;;
29384;SDS011;16367;48.736;9.218;2023-08-30T10:27:05;4.65;;;2.08;;
29384;SDS011;16367;48.736;9.218;2023-08-30T10:29:10;4.85;;;2.50;;
29384;SDS011;16367;48.736;9.218;2023-08-30T10:31:15;6.43;;;2.20;;
29384;SDS011;16367;48.736;9.218;2023-08-30T10:33:19;6.18;;;2.40;;
29384;SDS011;16367;48.736;9.218;2023-08-30T10:35:27;4.32;;;2.17;;
29384;SDS011;16367;48.736;9.218;2023-08-30T10:37:30;4.22;;;2.30;;
29384;SDS011;16367;48.736;9.218;2023-08-30T10:39:38;4.18;;;2.13;;
29384;SDS011;16367;48.736;9.218;2023-08-30T10:41:53;4.40;;;1.92;;
29384;SDS011;16367;48.736;9.218;2023-08-30T10:43:57;4.68;;;2.53;;
29384;SDS011;16367;48.736;9.218;2023-08-30T10:46:03;5.22;;;2.40;;
29384;SDS011;16367;48.736;9.218;2023-08-30T10:52:17;4.45;;;2.20;;
29384;SDS011;16367;48.736;9.218;2023-08-30T10:54:20;4.70;;;2.22;;
29384;SDS011;16367;48.736;9.218;2023-08-30T10:56:28;6.22;;;2.55;;
29384;SDS011;16367;48.736;9.218;2023-08-30T11:00:40;4.32;;;1.88;;
29384;SDS011;16367;48.736;9.218;2023-08-30T11:02:43;5.32;;;2.42;;
29384;SDS011;16367;48.736;9.218;2023-08-30T11:04:47;4.50;;;2.40;;
29384;SDS011;16367;48.736;9.218;2023-08-30T11:06:52;4.25;;;2.40;;
29384;SDS011;16367;48.736;9.218;2023-08-30T11:08:56;4.75;;;2.22;;
29384;SDS011;16367;48.736;9.218;2023-08-30T11:11:08;5.00;;;2.38;;
29384;SDS011;16367;48.736;9.218;2023-08-30T11:13:14;4.65;;;2.22;;
29384;SDS011;16367;48.736;9.218;2023-08-30T11:15:18;4.75;;;2.28;;
29384;SDS011;16367;48.736;9.218;2023-08-30T11:17:22;4.38;;;2.20;;
29384;SDS011;16367;48.736;9.218;2023-08-30T11:19:23;4.35;;;2.45;;
29384;SDS011;16367;48.736;9.218;2023-08-30T11:21:33;4.28;;;2.08;;
29384;SDS011;16367;48.736;9.218;2023-08-30T11:23:39;4.88;;;2.55;;
29384;SDS011;16367;48.736;9.218;2023-08-30T11:25:42;5.97;;;2.80;;
29384;SDS011;16367;48.736;9.218;2023-08-30T11:27:44;5.30;;;2.38;;
29384;SDS011;16367;48.736;9.218;2023-08-30T11:29:48;6.32;;;2.85;;
29384;SDS011;16367;48.736;9.218;2023-08-30T11:31:52;4.35;;;2.53;;
29384;SDS011;16367;48.736;9.218;2023-08-30T11:33:55;6.18;;;2.20;;
29384;SDS011;16367;48.736;9.218;2023-08-30T11:35:58;4.00;;;1.98;;
29384;SDS011;16367;48.736;9.218;2023-08-30T11:38:02;5.80;;;2.13;;
29384;SDS011;16367;48.736;9.218;2023-08-30T11:40:07;4.15;;;1.88;;
29384;SDS011;16367;48.736;9.218;2023-08-30T11:42:13;5.90;;;2.13;;
29384;SDS011;16367;48.736;9.218;2023-08-30T11:44:19;4.50;;;1.80;;
29384;SDS011;16367;48.736;9.218;2023-08-30T11:46:25;4.85;;;2.00;;
29384;SDS011;16367;48.736;9.218;2023-08-30T11:48:27;4.45;;;1.83;;
29384;SDS011;16367;48.736;9.218;2023-08-30T11:50:30;4.50;;;2.08;;
29384;SDS011;16367;48.736;9.218;2023-08-30T11:52:47;5.47;;;2.30;;
29384;SDS011;16367;48.736;9.218;2023-08-30T11:54:51;4.35;;;1.80;;
29384;SDS011;16367;48.736;9.218;2023-08-30T11:56:56;4.68;;;2.40;;
29384;SDS011;16367;48.736;9.218;2023-08-30T11:58:59;4.50;;;2.10;;
29384;SDS011;16367;48.736;9.218;2023-08-30T12:01:02;5.13;;;1.90;;
29384;SDS011;16367;48.736;9.218;2023-08-30T12:03:06;5.80;;;2.30;;
29384;SDS011;16367;48.736;9.218;2023-08-30T12:05:10;5.97;;;2.00;;
29384;SDS011;16367;48.736;9.218;2023-08-30T12:07:20;4.03;;;1.80;;
29384;SDS011;16367;48.736;9.218;2023-08-30T12:09:25;4.00;;;1.70;;
29384;SDS011;16367;48.736;9.218;2023-08-30T12:11:32;4.95;;;1.85;;
29384;SDS011;16367;48.736;9.218;2023-08-30T12:13:36;4.93;;;1.98;;
29384;SDS011;16367;48.736;9.218;2023-08-30T12:15:39;6.20;;;2.30;;
29384;SDS011;16367;48.736;9.218;2023-08-30T12:17:42;10.48;;;3.42;;
29384;SDS011;16367;48.736;9.218;2023-08-30T12:19:45;5.95;;;2.15;;
29384;SDS011;16367;48.736;9.218;2023-08-30T12:21:47;6.07;;;2.53;;
29384;SDS011;16367;48.736;9.218;2023-08-30T12:23:59;6.25;;;2.25;;
29384;SDS011;16367;48.736;9.218;2023-08-30T12:26:02;5.90;;;2.30;;